Terminal Aerodrome Forecast
Issued by NWS Greer, SC

Home | Current Version | Previous Version | Text Only | Print | Product List | Glossary On
Versions: 1 2 3 4 5 6 7 8 9 10 11 12 13 14 15 16 17 18 19 20 21 22 23 24 25 26 27
819
FTUS42 KGSP 240538
TAFGSP
TAF
KGSP 240538Z 2406/2506 22006KT P6SM VCSH BKN005 OVC015
      TEMPO 2406/2409 4SM -SHRA BR OVC003
     FM241400 15005KT 5SM BR VCTS OVC008CB
     FM241800 20012G18KT P6SM VCTS OVC035CB PROB30 2418/2424 3SM
      TSRA OVC020CB
     FM250000 21008KT P6SM OVC060=

USA.gov is the U.S. government's official web portal to all federal, state and local government web resources and services.